Time;durP1;ratioP1;P1;durP2;ratioP2;P2;SDS_P1;SDS_P2;PMS_P1;PMS_P2;Temp;Humidity;BMP_temperature;BMP_pressure;BME280_temperature;BME280_humidity;BME280_pressure;Samples;Min_cycle;Max_cycle;Signal;HPM_P1;HPM_P2
2022/05/17 00:01:52;;;;;;;8.93;3.75;;;;;;;12.10;91.38;97827.66;4998660;28;20042;-68
2022/05/17 00:04:20;;;;;;;6.07;3.38;;;;;;;12.16;91.44;97825.84;4986059;28;20045;-67
2022/05/17 00:06:48;;;;;;;9.07;3.58;;;;;;;12.18;91.33;97826.41;4989180;28;20679;-67
2022/05/17 00:09:16;;;;;;;7.05;3.42;;;;;;;12.22;91.52;97835.69;4997074;28;20046;-67
2022/05/17 00:11:45;;;;;;;6.95;3.22;;;;;;;12.27;91.08;97829.50;4986192;28;20516;-67
2022/05/17 00:14:12;;;;;;;11.80;4.22;;;;;;;12.27;91.17;97821.34;4985978;28;20084;-68
2022/05/17 00:16:41;;;;;;;7.22;3.55;;;;;;;12.29;91.25;97824.66;4987136;28;20050;-66
2022/05/17 00:19:09;;;;;;;4.90;2.88;;;;;;;12.31;90.90;97835.28;4995653;28;20054;-67
2022/05/17 00:21:37;;;;;;;7.32;3.90;;;;;;;12.33;91.12;97831.22;4993331;28;20604;-69
2022/05/17 00:24:05;;;;;;;6.90;3.65;;;;;;;12.39;90.63;97831.28;5005561;28;20042;-68
2022/05/17 00:26:33;;;;;;;5.32;3.13;;;;;;;12.47;89.69;97831.69;5004036;28;20100;-68
2022/05/17 00:29:02;;;;;;;6.45;3.03;;;;;;;12.50;89.31;97835.78;4995446;28;20050;-68
2022/05/17 00:31:28;;;;;;;7.63;3.05;;;;;;;12.52;89.17;97841.75;5003425;28;20042;-68
2022/05/17 00:33:55;;;;;;;5.45;3.20;;;;;;;12.57;88.93;97833.66;5003854;28;20038;-66
2022/05/17 00:36:22;;;;;;;8.63;3.20;;;;;;;12.59;88.79;97841.56;5001699;28;20046;-68
2022/05/17 00:38:50;;;;;;;5.90;3.60;;;;;;;12.55;89.02;97835.84;4990252;28;20086;-67
2022/05/17 00:41:17;;;;;;;7.07;2.72;;;;;;;12.53;89.27;97834.44;4997979;28;20049;-68
2022/05/17 00:46:53;;;;;;;8.55;3.30;;;;;;;12.55;88.83;97833.13;4995326;28;20395;-68
2022/05/17 00:49:32;;;;;;;6.38;3.50;;;;;;;12.48;88.59;97827.03;5004860;28;20378;-67
2022/05/17 00:52:03;;;;;;;6.60;2.97;;;;;;;12.40;89.12;97822.88;5004171;28;20038;-68
2022/05/17 00:54:30;;;;;;;6.22;2.80;;;;;;;12.34;89.32;97819.28;5019070;28;20049;-66
2022/05/17 00:57:12;;;;;;;7.43;4.25;;;;;;;12.29;89.17;97824.66;5019767;28;20100;-67
2022/05/17 00:59:39;;;;;;;7.13;3.28;;;;;;;12.15;90.04;97815.22;5003215;28;20038;-67
2022/05/17 01:02:09;;;;;;;6.53;2.95;;;;;;;12.10;90.64;97818.72;5021248;28;20037;-67
2022/05/17 01:04:37;;;;;;;6.60;3.28;;;;;;;12.06;90.53;97818.38;4998811;28;20042;-66
2022/05/17 01:07:09;;;;;;;7.45;3.42;;;;;;;11.95;91.18;97822.00;4987982;28;20070;-67
2022/05/17 01:09:36;;;;;;;7.82;3.95;;;;;;;11.91;91.49;97807.28;5001026;28;20088;-68
2022/05/17 01:12:03;;;;;;;7.47;3.67;;;;;;;11.87;91.57;97809.66;5004312;28;20058;-67
2022/05/17 01:17:15;;;;;;;6.57;3.40;;;;;;;11.91;91.04;97812.72;4996004;28;20072;-67
2022/05/17 01:19:43;;;;;;;6.53;2.97;;;;;;;11.86;90.42;97824.31;5001944;28;20038;-66
2022/05/17 01:22:10;;;;;;;9.20;3.38;;;;;;;11.76;91.98;97824.97;5001007;28;20050;-68
2022/05/17 01:24:37;;;;;;;5.53;2.97;;;;;;;11.68;92.11;97825.38;5001008;28;20045;-66
2022/05/17 01:27:11;;;;;;;8.30;3.58;;;;;;;11.65;91.50;97823.19;5001668;28;20057;-68
2022/05/17 01:29:43;;;;;;;6.72;3.45;;;;;;;11.62;92.14;97826.41;4992831;28;20549;-67
2022/05/17 01:32:11;;;;;;;5.97;4.20;;;;;;;11.64;92.43;97826.97;4996091;28;20634;-68
2022/05/17 01:34:38;;;;;;;6.88;3.67;;;;;;;11.69;92.50;97819.72;5003651;28;20069;-67
2022/05/17 01:37:05;;;;;;;12.57;3.88;;;;;;;11.81;91.85;97826.94;4998307;28;20046;-67
2022/05/17 01:39:33;;;;;;;5.10;3.38;;;;;;;11.86;91.94;97829.72;4995397;28;20050;-66
2022/05/17 01:42:00;;;;;;;8.90;3.88;;;;;;;11.89;91.52;97837.38;4985727;28;20042;-66
2022/05/17 01:44:26;;;;;;;8.40;3.55;;;;;;;11.93;91.79;97824.13;4987758;28;20445;-66
2022/05/17 01:46:53;;;;;;;7.00;3.53;;;;;;;11.88;92.07;97826.78;5002297;28;20046;-67
2022/05/17 01:49:20;;;;;;;5.53;3.78;;;;;;;11.93;91.78;97822.25;5000070;28;20046;-67
2022/05/17 01:51:46;;;;;;;6.18;3.40;;;;;;;11.85;91.03;97825.38;4996064;28;20048;-66
2022/05/17 01:54:13;;;;;;;9.77;3.85;;;;;;;11.81;91.08;97822.34;5008172;28;20045;-67
2022/05/17 01:56:40;;;;;;;6.40;3.40;;;;;;;11.71;91.37;97816.75;5007667;28;20049;-67
2022/05/17 01:59:07;;;;;;;6.30;3.53;;;;;;;11.67;92.07;97813.72;4997950;28;20047;-67
2022/05/17 02:01:33;;;;;;;7.97;3.58;;;;;;;11.63;92.30;97817.19;4993611;28;20045;-66
2022/05/17 02:04:00;;;;;;;6.40;3.40;;;;;;;11.71;92.29;97820.31;5006929;28;20041;-66
2022/05/17 02:06:26;;;;;;;6.90;4.13;;;;;;;11.62;91.55;97815.53;5002253;28;20046;-66
2022/05/17 02:08:54;;;;;;;8.52;4.03;;;;;;;11.58;92.10;97809.81;4990820;28;20050;-68
2022/05/17 02:11:21;;;;;;;10.00;4.03;;;;;;;11.42;92.78;97814.13;4990759;28;20049;-66
2022/05/17 02:13:47;;;;;;;9.50;4.65;;;;;;;11.42;93.01;97806.84;5007843;28;20046;-66
2022/05/17 02:16:14;;;;;;;7.93;3.80;;;;;;;11.45;92.36;97813.66;5002377;28;20045;-67
2022/05/17 02:18:45;;;;;;;8.50;3.85;;;;;;;11.29;92.14;97809.88;5019384;28;20050;-67
2022/05/17 02:21:12;;;;;;;8.45;3.70;;;;;;;11.18;92.03;97800.75;5016173;28;20556;-67
2022/05/17 02:23:38;;;;;;;12.40;5.43;;;;;;;11.11;93.22;97800.91;5017399;28;20068;-66
2022/05/17 02:26:05;;;;;;;10.15;4.38;;;;;;;11.10;93.39;97803.88;5008215;28;20041;-67
2022/05/17 02:28:32;;;;;;;8.25;4.25;;;;;;;11.17;92.24;97809.97;5013621;28;20048;-67
2022/05/17 02:30:59;;;;;;;11.57;4.22;;;;;;;11.03;93.20;97812.97;5004421;28;20050;-69
2022/05/17 02:33:25;;;;;;;7.38;3.85;;;;;;;11.01;93.12;97809.69;5005440;28;20038;-67
2022/05/17 02:35:52;;;;;;;7.47;4.28;;;;;;;10.92;93.93;97805.72;5012264;28;20125;-67
2022/05/17 02:38:18;;;;;;;8.07;4.75;;;;;;;10.83;94.22;97812.63;5006751;28;20501;-67
2022/05/17 02:40:45;;;;;;;8.30;4.22;;;;;;;10.88;94.89;97815.41;4995388;28;20126;-68
2022/05/17 02:43:13;;;;;;;7.28;4.38;;;;;;;10.92;94.01;97813.88;4986632;28;20038;-67
2022/05/17 02:45:40;;;;;;;6.75;4.25;;;;;;;11.02;93.34;97808.63;4987001;28;20057;-67
2022/05/17 02:48:07;;;;;;;8.88;4.07;;;;;;;11.03;93.13;97817.56;5004674;28;20294;-69
2022/05/17 02:50:34;;;;;;;7.85;4.35;;;;;;;11.07;93.00;97826.88;5005718;28;20102;-67
2022/05/17 02:53:00;;;;;;;8.35;4.38;;;;;;;10.90;93.41;97814.09;5013207;28;20045;-67
2022/05/17 02:55:27;;;;;;;7.93;4.32;;;;;;;10.92;93.43;97822.78;5025466;28;20041;-67
2022/05/17 02:57:54;;;;;;;6.38;4.22;;;;;;;10.90;93.88;97824.09;4990796;28;20057;-68
2022/05/17 03:00:20;;;;;;;6.70;4.22;;;;;;;10.96;94.48;97828.56;4986972;28;20046;-67
2022/05/17 03:02:47;;;;;;;8.00;4.95;;;;;;;11.05;93.52;97837.09;5003504;28;20046;-67
2022/05/17 03:05:14;;;;;;;7.07;4.43;;;;;;;11.03;93.34;97831.13;5006067;28;20734;-67
2022/05/17 03:07:41;;;;;;;8.55;4.28;;;;;;;10.99;93.16;97838.09;5004907;28;20042;-67
2022/05/17 03:10:10;;;;;;;7.47;4.75;;;;;;;11.03;94.21;97834.63;5005130;28;20398;-66
2022/05/17 03:12:37;;;;;;;6.00;4.07;;;;;;;11.14;93.77;97843.81;4988232;28;20035;-68
2022/05/17 03:15:05;;;;;;;8.07;4.13;;;;;;;11.01;92.08;97844.91;4985886;28;20054;-67
2022/05/17 03:17:31;;;;;;;11.98;4.22;;;;;;;10.80;92.12;97841.81;5002826;28;20390;-67
2022/05/17 03:19:58;;;;;;;10.73;4.28;;;;;;;10.77;93.49;97842.28;5005966;28;20716;-68
2022/05/17 03:22:25;;;;;;;8.48;4.82;;;;;;;10.70;95.41;97849.75;5003865;28;20042;-67
2022/05/17 03:24:51;;;;;;;7.32;5.07;;;;;;;10.72;95.60;97853.03;5006512;28;20389;-67
2022/05/17 03:27:38;;;;;;;7.10;5.07;;;;;;;10.76;95.17;97856.09;5003177;28;20412;-67
2022/05/17 03:30:06;;;;;;;7.53;4.82;;;;;;;10.82;95.26;97857.00;5004601;28;20056;-68
2022/05/17 03:32:32;;;;;;;8.27;5.05;;;;;;;10.79;95.28;97855.59;5009490;28;20416;-67
2022/05/17 03:34:59;;;;;;;8.05;4.80;;;;;;;10.90;94.99;97857.44;5011259;28;20038;-68
2022/05/17 03:37:25;;;;;;;11.23;4.93;;;;;;;10.89;95.08;97858.53;5002630;28;20042;-66
2022/05/17 03:39:52;;;;;;;8.02;5.03;;;;;;;10.88;94.84;97856.06;5003814;28;20671;-67
2022/05/17 03:42:19;;;;;;;11.43;4.93;;;;;;;10.93;95.01;97859.69;5017047;28;20423;-68
2022/05/17 03:44:46;;;;;;;7.15;4.72;;;;;;;10.91;94.89;97861.00;5022989;28;20041;-68
2022/05/17 03:47:13;;;;;;;10.75;5.32;;;;;;;10.85;95.00;97865.50;5017490;28;20042;-68
2022/05/17 03:49:40;;;;;;;8.10;4.88;;;;;;;10.90;95.15;97867.44;4993895;28;20080;-68
2022/05/17 03:52:08;;;;;;;9.88;5.03;;;;;;;10.91;94.93;97864.50;5011044;28;20089;-69
2022/05/17 03:54:36;;;;;;;8.68;5.75;;;;;;;10.86;95.05;97869.00;5020481;28;20237;-68
2022/05/17 03:57:04;;;;;;;13.30;5.72;;;;;;;10.92;95.21;97868.03;5018948;28;20110;-68
2022/05/17 03:59:30;;;;;;;8.52;5.43;;;;;;;10.92;94.79;97873.47;5010809;28;20046;-67
2022/05/17 04:01:57;;;;;;;10.75;5.13;;;;;;;10.84;94.96;97877.38;5002678;28;20471;-67
2022/05/17 04:04:25;;;;;;;8.82;4.97;;;;;;;10.76;95.32;97884.00;5003902;28;20437;-70
2022/05/17 04:06:51;;;;;;;9.70;5.45;;;;;;;10.65;95.87;97885.69;5003662;28;20037;-66
2022/05/17 04:09:18;;;;;;;8.07;5.32;;;;;;;10.67;96.12;97885.44;5005389;28;20050;-68
2022/05/17 04:11:44;;;;;;;10.50;5.65;;;;;;;10.83;95.36;97886.56;4997018;28;20069;-67
2022/05/17 04:14:11;;;;;;;11.70;5.88;;;;;;;10.90;95.46;97887.25;5005120;28;20089;-69
2022/05/17 04:16:39;;;;;;;11.00;5.57;;;;;;;10.96;95.67;97890.06;5003967;28;20502;-67
2022/05/17 04:19:07;;;;;;;10.13;5.28;;;;;;;11.03;95.13;97896.16;5003374;28;20438;-70
2022/05/17 04:21:34;;;;;;;6.35;4.63;;;;;;;11.05;94.88;97894.00;5004034;28;20080;-68
2022/05/17 04:24:00;;;;;;;10.90;6.18;;;;;;;11.09;94.56;97899.78;5004644;28;20064;-70
2022/05/17 04:26:27;;;;;;;7.32;5.88;;;;;;;11.09;94.53;97899.78;5004524;28;20111;-69
2022/05/17 04:28:54;;;;;;;12.00;6.10;;;;;;;11.14;94.36;97894.47;5005669;28;20104;-69
2022/05/17 04:31:21;;;;;;;10.15;5.47;;;;;;;11.13;94.29;97899.03;4996205;28;20058;-68
2022/05/17 04:33:49;;;;;;;10.23;5.47;;;;;;;11.13;94.31;97906.38;4999556;28;20052;-70
2022/05/17 04:36:15;;;;;;;10.25;5.20;;;;;;;11.09;93.87;97900.59;5001479;28;20061;-67
2022/05/17 04:38:42;;;;;;;7.75;5.43;;;;;;;11.14;93.94;97902.59;5006935;28;20037;-67
2022/05/17 04:41:08;;;;;;;7.25;4.68;;;;;;;11.23;93.38;97903.00;5002361;28;20207;-67
2022/05/17 04:43:35;;;;;;;8.13;5.38;;;;;;;11.25;93.61;97904.44;5009298;28;20045;-69
2022/05/17 04:46:01;;;;;;;7.65;4.75;;;;;;;11.32;93.71;97905.09;4999805;28;20046;-67
2022/05/17 04:48:29;;;;;;;7.85;5.13;;;;;;;11.42;93.67;97900.91;5006118;28;20049;-69
2022/05/17 04:50:55;;;;;;;10.90;5.65;;;;;;;11.56;93.09;97904.97;5003173;28;20429;-68
2022/05/17 04:53:26;;;;;;;8.32;5.57;;;;;;;11.60;92.99;97908.00;5002711;28;20911;-69
2022/05/17 04:55:52;;;;;;;11.77;5.38;;;;;;;11.74;92.25;97908.50;5006997;28;20122;-67
2022/05/17 04:58:19;;;;;;;8.32;5.43;;;;;;;11.71;92.50;97906.28;5007227;28;20034;-70
2022/05/17 05:00:46;;;;;;;11.23;5.68;;;;;;;11.77;92.49;97910.75;5001856;28;20471;-69
2022/05/17 05:03:12;;;;;;;8.52;5.68;;;;;;;11.87;92.49;97910.06;5004073;28;20049;-71
2022/05/17 05:05:38;;;;;;;7.97;4.88;;;;;;;11.97;92.26;97914.81;5021312;28;20498;-66
2022/05/17 05:08:06;;;;;;;8.52;5.07;;;;;;;12.04;92.12;97909.22;5013516;28;20099;-66
2022/05/17 05:10:32;;;;;;;10.05;5.70;;;;;;;12.16;91.77;97911.91;5019255;28;20037;-68
2022/05/17 05:12:59;;;;;;;11.35;5.78;;;;;;;12.23;91.68;97909.81;5014757;28;20041;-67
2022/05/17 05:15:26;;;;;;;9.18;5.47;;;;;;;12.29;91.87;97911.53;5020565;28;20100;-70
2022/05/17 05:17:52;;;;;;;10.27;5.18;;;;;;;12.42;91.74;97914.97;4995819;28;20046;-69
2022/05/17 05:20:19;;;;;;;9.02;5.65;;;;;;;12.51;91.61;97918.91;5024307;28;20053;-67
2022/05/17 05:22:46;;;;;;;8.15;5.45;;;;;;;12.67;90.94;97919.06;5006650;28;20717;-66
2022/05/17 05:25:14;;;;;;;7.50;5.20;;;;;;;12.80;91.52;97923.31;5012038;28;20041;-67
2022/05/17 05:27:41;;;;;;;9.10;5.38;;;;;;;12.90;90.72;97923.44;5016909;28;20137;-70
2022/05/17 05:30:12;;;;;;;11.27;5.25;;;;;;;12.96;90.76;97927.03;5011823;28;20045;-69
2022/05/17 05:32:38;;;;;;;9.75;5.40;;;;;;;13.13;90.88;97921.53;5019455;28;20041;-68
2022/05/17 05:35:05;;;;;;;10.40;5.20;;;;;;;13.26;90.30;97928.47;5022658;28;20048;-68
2022/05/17 05:37:32;;;;;;;8.48;5.70;;;;;;;13.42;90.13;97936.78;5002509;28;20575;-69
2022/05/17 05:39:59;;;;;;;10.50;4.72;;;;;;;13.60;89.65;97932.91;5003017;28;20057;-68
2022/05/17 05:42:25;;;;;;;7.30;5.05;;;;;;;13.77;88.97;97930.06;5005559;28;20132;-69
2022/05/17 05:44:52;;;;;;;8.02;5.15;;;;;;;13.91;88.52;97922.28;5012001;28;20541;-70
2022/05/17 05:47:19;;;;;;;7.85;4.93;;;;;;;14.08;88.02;97924.84;5025018;28;20443;-67
2022/05/17 05:49:46;;;;;;;11.02;4.82;;;;;;;14.23;87.64;97931.50;5023973;28;20049;-69
2022/05/17 05:52:15;;;;;;;8.95;4.53;;;;;;;14.37;87.38;97929.16;5019515;28;20038;-68
2022/05/17 05:54:42;;;;;;;9.23;5.05;;;;;;;14.49;85.85;97943.38;5005237;28;20123;-70
2022/05/17 05:57:09;;;;;;;10.88;5.03;;;;;;;14.61;85.29;97939.63;4997307;28;20042;-71
2022/05/17 05:59:36;;;;;;;9.93;5.15;;;;;;;14.74;85.31;97949.25;4997194;28;20049;-69
2022/05/17 06:02:03;;;;;;;12.13;5.22;;;;;;;14.84;84.54;97941.13;5014769;28;20496;-68
2022/05/17 06:04:30;;;;;;;7.85;5.18;;;;;;;14.95;83.46;97942.00;5010048;28;20042;-67
2022/05/17 06:07:00;;;;;;;7.78;4.88;;;;;;;15.10;83.04;97943.94;5016069;28;20038;-68
2022/05/17 06:09:27;;;;;;;9.70;4.85;;;;;;;15.19;82.48;97945.06;5009074;28;20046;-68
2022/05/17 06:11:54;;;;;;;6.60;4.40;;;;;;;15.33;82.53;97945.38;4985054;28;20090;-68
2022/05/17 06:14:21;;;;;;;7.75;4.60;;;;;;;15.47;83.33;97942.97;4998090;28;20046;-69
2022/05/17 06:16:49;;;;;;;6.07;4.40;;;;;;;15.63;82.94;97947.63;5023503;28;20053;-68
2022/05/17 06:19:16;;;;;;;9.38;4.68;;;;;;;15.74;82.08;97941.91;5012051;28;20060;-68
2022/05/17 06:21:43;;;;;;;8.32;5.13;;;;;;;15.91;81.71;97949.00;5015788;28;20169;-68
2022/05/17 06:24:10;;;;;;;11.98;5.35;;;;;;;16.05;80.99;97946.59;5002915;28;20425;-70
2022/05/17 06:26:36;;;;;;;8.07;4.40;;;;;;;16.18;80.70;97941.66;5004418;28;20046;-67
2022/05/17 06:29:04;;;;;;;7.18;4.65;;;;;;;16.24;80.17;97946.84;5021540;28;20119;-69
2022/05/17 06:31:30;;;;;;;7.32;4.88;;;;;;;16.37;79.54;97936.44;5012969;28;20049;-67
2022/05/17 06:33:57;;;;;;;9.95;5.20;;;;;;;16.46;76.73;97942.16;5008130;28;20037;-67
2022/05/17 06:36:24;;;;;;;8.77;4.70;;;;;;;16.55;75.89;97942.41;5021792;28;20060;-70
2022/05/17 06:39:11;;;;;;;9.75;5.45;;;;;;;16.70;75.28;97942.34;5015985;28;20052;-67
2022/05/17 06:41:39;;;;;;;8.13;4.78;;;;;;;16.84;75.40;97947.25;5016849;28;20071;-68
2022/05/17 06:44:06;;;;;;;9.48;4.75;;;;;;;16.99;75.06;97949.91;5021122;28;20178;-69
2022/05/17 06:46:33;;;;;;;7.88;5.55;;;;;;;17.14;74.21;97957.28;5009707;28;20061;-66
2022/05/17 06:49:00;;;;;;;8.30;4.90;;;;;;;17.27;74.10;97955.84;4993448;28;20040;-68
2022/05/17 06:51:26;;;;;;;10.15;4.85;;;;;;;17.27;73.24;97944.06;5016178;28;20107;-70
2022/05/17 06:53:53;;;;;;;7.22;4.57;;;;;;;17.38;73.01;97948.41;5011194;28;20045;-68
2022/05/17 06:56:20;;;;;;;7.28;4.10;;;;;;;17.43;72.96;97950.28;5024627;28;20359;-68
2022/05/17 06:58:46;;;;;;;8.48;4.38;;;;;;;17.47;72.52;97948.59;5016541;28;20038;-70
2022/05/17 07:01:13;;;;;;;7.75;4.72;;;;;;;17.54;72.67;97951.03;5011705;28;20133;-67
2022/05/17 07:03:42;;;;;;;7.18;4.57;;;;;;;17.67;72.53;97957.81;5004591;28;20799;-70
2022/05/17 07:06:09;;;;;;;9.60;4.55;;;;;;;17.78;72.90;97962.13;5017009;28;20091;-69
2022/05/17 07:08:36;;;;;;;16.52;6.32;;;;;;;17.83;71.79;97953.03;5010862;28;20045;-67
2022/05/17 07:13:48;;;;;;;8.05;4.80;;;;;;;18.01;70.68;97957.00;5013445;28;20092;-70
2022/05/17 07:16:15;;;;;;;7.35;4.53;;;;;;;18.16;70.13;97963.47;5011761;28;20782;-70
2022/05/17 07:18:42;;;;;;;7.03;4.25;;;;;;;18.08;69.54;97959.44;5008925;28;20795;-69
2022/05/17 07:21:11;;;;;;;7.47;4.47;;;;;;;18.15;69.79;97961.84;5010040;28;20128;-71
2022/05/17 07:23:38;;;;;;;7.63;4.75;;;;;;;18.29;70.18;97957.34;5011507;28;20054;-76
2022/05/17 07:26:05;;;;;;;6.75;4.25;;;;;;;18.43;67.21;97953.94;5036164;28;20045;-75
2022/05/17 07:28:32;;;;;;;8.30;4.40;;;;;;;18.62;68.30;97958.66;5007116;28;20041;-66
2022/05/17 07:30:59;;;;;;;8.00;4.50;;;;;;;18.81;67.19;97951.31;5006259;28;20049;-67
2022/05/17 07:33:26;;;;;;;6.38;3.67;;;;;;;18.96;65.68;97957.72;5020188;28;20124;-67
2022/05/17 07:35:53;;;;;;;10.13;4.30;;;;;;;19.17;65.47;97952.81;5011774;28;20049;-66
2022/05/17 07:38:20;;;;;;;7.40;4.43;;;;;;;19.38;64.40;97949.00;5001689;28;20052;-67
2022/05/17 07:40:47;;;;;;;8.05;3.83;;;;;;;19.54;63.76;97958.66;5010938;28;20069;-67
2022/05/17 07:43:14;;;;;;;7.97;3.78;;;;;;;19.60;62.09;97959.38;5001060;28;20073;-66
2022/05/17 07:45:41;;;;;;;8.25;3.75;;;;;;;19.70;62.60;97955.66;5017837;28;20049;-67
2022/05/17 07:48:09;;;;;;;8.63;3.72;;;;;;;19.91;62.32;97963.59;5002344;28;20061;-67
2022/05/17 07:50:35;;;;;;;9.65;4.65;;;;;;;19.92;60.75;97956.97;5020104;28;20049;-67
2022/05/17 07:53:11;;;;;;;5.45;3.75;;;;;;;20.10;59.65;97960.84;5012266;28;20429;-68
2022/05/17 07:55:39;;;;;;;6.40;3.20;;;;;;;20.02;56.89;97954.91;5016326;28;20046;-67
2022/05/17 07:58:07;;;;;;;6.32;3.40;;;;;;;20.20;58.67;97959.88;5008688;28;20690;-67
2022/05/17 08:00:34;;;;;;;6.95;3.80;;;;;;;20.22;59.33;97961.19;5008774;28;20072;-72
2022/05/17 08:03:02;;;;;;;6.57;4.13;;;;;;;20.56;59.20;97963.91;5008382;28;20049;-74
2022/05/17 08:05:29;;;;;;;7.45;3.60;;;;;;;20.58;58.45;97959.75;5033723;28;20026;-70
2022/05/17 08:07:57;;;;;;;6.15;3.10;;;;;;;20.85;57.36;97962.78;5016342;28;20057;-69
2022/05/17 08:10:24;;;;;;;8.27;3.30;;;;;;;20.43;56.60;97957.25;5005066;28;20046;-67
2022/05/17 08:12:52;;;;;;;7.68;3.45;;;;;;;20.50;56.84;97957.69;5009405;28;20616;-67
2022/05/17 08:15:21;;;;;;;5.18;2.65;;;;;;;20.70;55.27;97958.41;5014938;28;20038;-69
2022/05/17 08:17:48;;;;;;;6.90;3.13;;;;;;;20.87;54.81;97961.44;4993409;28;20042;-67
2022/05/17 08:20:15;;;;;;;6.22;3.10;;;;;;;21.09;53.96;97948.03;5016995;28;20065;-69
2022/05/17 08:22:43;;;;;;;5.35;3.00;;;;;;;20.89;54.23;97953.66;5008399;28;20047;-68
2022/05/17 08:27:58;;;;;;;7.28;3.35;;;;;;;20.60;55.39;97953.94;5010153;28;20050;-71
2022/05/17 08:30:27;;;;;;;10.80;3.67;;;;;;;20.79;55.73;97949.16;5017947;28;20046;-69
2022/05/17 08:33:17;;;;;;;7.13;2.80;;;;;;;21.07;55.09;97948.34;5011052;28;20053;-71
2022/05/17 08:35:46;;;;;;;5.03;3.20;;;;;;;21.17;54.72;97942.66;5021554;28;20068;-64
2022/05/17 08:38:17;;;;;;;7.63;3.00;;;;;;;21.49;53.72;97952.97;5004885;28;20144;-72
2022/05/17 08:40:49;;;;;;;5.78;2.45;;;;;;;21.36;53.15;97949.13;5010085;28;20049;-69
2022/05/17 08:43:28;;;;;;;6.63;2.90;;;;;;;21.11;53.13;97951.31;5001538;28;21621;-70
2022/05/17 08:46:17;;;;;;;5.38;2.97;;;;;;;21.14;52.81;97950.69;5005416;28;20042;-71
2022/05/17 08:48:52;;;;;;;6.20;2.47;;;;;;;21.26;52.99;97947.44;4998408;28;20045;-70
2022/05/17 08:51:33;;;;;;;6.03;2.40;;;;;;;21.58;52.58;97948.34;5012205;28;20155;-72
2022/05/17 08:54:00;;;;;;;4.68;2.50;;;;;;;21.77;51.33;97948.22;5030418;28;20065;-73
2022/05/17 08:56:29;;;;;;;5.65;2.78;;;;;;;22.07;50.24;97948.59;5009601;28;20091;-71
2022/05/17 08:58:56;;;;;;;6.20;2.40;;;;;;;22.13;49.81;97954.81;5017347;28;20046;-68
2022/05/17 09:01:31;;;;;;;7.72;2.90;;;;;;;21.83;50.12;97954.44;5020745;28;20057;-77
2022/05/17 09:04:45;;;;;;;8.45;2.53;;;;;;;21.98;49.99;97944.16;5049385;28;20052;-77
2022/05/17 09:07:20;;;;;;;5.50;2.28;;;;;;;22.13;50.08;97943.78;4971664;28;20142;-72
2022/05/17 09:10:27;;;;;;;6.75;2.58;;;;;;;22.18;50.15;97943.63;4983072;28;20043;-69
2022/05/17 09:13:18;;;;;;;6.00;3.70;;;;;;;22.12;49.04;97941.34;4997587;28;20127;-68
2022/05/17 09:15:45;;;;;;;8.85;3.17;;;;;;;21.85;50.56;97940.34;5006572;28;20042;-65
2022/05/17 09:18:15;;;;;;;5.60;2.67;;;;;;;21.78;51.17;97938.03;5011732;28;20050;-65
2022/05/17 09:20:42;;;;;;;7.72;3.00;;;;;;;21.94;49.91;97935.69;5017404;28;20109;-68
2022/05/17 09:23:09;;;;;;;6.60;2.72;;;;;;;21.96;50.24;97944.47;5001661;28;20038;-63
2022/05/17 09:26:00;;;;;;;6.45;2.95;;;;;;;21.73;50.75;97940.88;5011445;28;20092;-64
2022/05/17 09:28:55;;;;;;;6.18;2.70;;;;;;;21.93;50.16;97939.59;5024807;28;20132;-64
2022/05/17 09:31:21;;;;;;;6.43;2.60;;;;;;;21.92;50.95;97952.56;5010376;28;20505;-67
2022/05/17 09:33:50;;;;;;;8.38;2.47;;;;;;;22.16;50.10;97947.84;5011636;28;20052;-67
2022/05/17 09:36:23;;;;;;;9.68;2.72;;;;;;;22.42;49.17;97949.94;5015568;28;20034;-68
2022/05/17 09:38:52;;;;;;;5.97;2.58;;;;;;;22.54;48.75;97939.13;5017471;28;20053;-66
2022/05/17 09:41:25;;;;;;;7.38;3.65;;;;;;;22.42;48.75;97939.72;5013714;28;20117;-66
2022/05/17 09:44:00;;;;;;;8.45;2.50;;;;;;;22.25;48.61;97940.44;5005255;28;20069;-66
2022/05/17 09:46:35;;;;;;;6.63;2.85;;;;;;;21.88;48.93;97937.75;5009950;28;20500;-67
2022/05/17 09:54:53;;;;;;;4.38;2.65;;;;;;;22.35;49.21;97933.84;5008969;28;20049;-69
2022/05/17 09:57:29;;;;;;;4.85;2.50;;;;;;;22.42;47.63;97934.22;4999701;28;20042;-68
2022/05/17 10:00:08;;;;;;;4.10;2.60;;;;;;;22.59;46.58;97930.75;5006388;28;20061;-66
2022/05/17 10:02:56;;;;;;;4.65;2.55;;;;;;;22.76;46.96;97929.19;5009739;28;20810;-68
2022/05/17 10:05:38;;;;;;;6.18;2.80;;;;;;;22.86;47.19;97936.38;5015142;28;20038;-66
2022/05/17 10:08:27;;;;;;;8.30;3.50;;;;;;;22.65;47.81;97936.09;5011770;28;20401;-68
2022/05/17 10:11:02;;;;;;;5.78;2.30;;;;;;;23.03;46.37;97924.53;5020372;28;20045;-69
2022/05/17 10:13:59;;;;;;;4.53;2.50;;;;;;;23.19;47.14;97924.94;5001656;28;20501;-66
2022/05/17 10:16:40;;;;;;;5.82;2.50;;;;;;;23.15;46.99;97925.88;5001812;28;20514;-69
2022/05/17 10:19:19;;;;;;;4.45;1.98;;;;;;;23.47;45.95;97923.81;5008510;28;20060;-69
2022/05/17 10:22:01;;;;;;;4.90;2.10;;;;;;;23.50;45.69;97920.41;5017960;28;20107;-67
2022/05/17 10:25:01;;;;;;;5.38;2.38;;;;;;;23.52;44.96;97912.63;5017031;28;20049;-68
2022/05/17 10:27:32;;;;;;;6.90;2.45;;;;;;;23.32;45.44;97909.31;5000012;28;20604;-69
2022/05/17 10:30:15;;;;;;;4.75;2.42;;;;;;;23.31;46.45;97904.94;5010617;28;20100;-71
2022/05/17 10:32:57;;;;;;;7.03;2.20;;;;;;;23.25;46.41;97903.47;5013646;28;20087;-71
2022/05/17 10:35:27;;;;;;;6.70;2.25;;;;;;;23.21;45.86;97905.25;5011029;28;20050;-74
2022/05/17 10:38:01;;;;;;;5.40;2.33;;;;;;;23.22;46.68;97904.91;5010682;28;20045;-72
2022/05/17 10:40:30;;;;;;;4.78;2.17;;;;;;;23.18;46.72;97905.91;5014830;28;20069;-76
2022/05/17 10:42:59;;;;;;;5.03;2.47;;;;;;;23.04;47.36;97898.56;5015218;28;20049;-69
2022/05/17 10:45:32;;;;;;;6.78;2.70;;;;;;;23.19;46.69;97900.06;5024369;28;20092;-72
2022/05/17 10:48:22;;;;;;;4.15;2.25;;;;;;;23.69;45.38;97903.50;5006926;28;20120;-72
2022/05/17 10:51:01;;;;;;;7.95;3.40;;;;;;;23.52;45.06;97899.59;5014213;28;20050;-77
2022/05/17 10:53:49;;;;;;;6.40;2.40;;;;;;;23.38;45.86;97885.97;5012536;28;20528;-71
2022/05/17 10:56:37;;;;;;;4.95;2.25;;;;;;;23.40;45.29;97893.91;5011410;28;20607;-69
2022/05/17 10:59:47;;;;;;;7.63;2.13;;;;;;;23.19;44.45;97882.66;5010523;28;20545;-69
2022/05/17 11:02:16;;;;;;;8.23;2.58;;;;;;;23.43;45.01;97887.75;5022945;28;20051;-76
2022/05/17 11:05:07;;;;;;;4.07;2.05;;;;;;;23.51;44.58;97883.34;5030949;28;20092;-75
2022/05/17 11:07:52;;;;;;;2.75;1.50;;;;;;;23.08;42.06;97882.16;5007728;28;20612;-73
2022/05/17 11:10:57;;;;;;;5.03;2.00;;;;;;;23.30;44.51;97880.41;5007462;28;20624;-73
2022/05/17 11:13:29;;;;;;;6.18;2.15;;;;;;;23.23;43.61;97873.41;4975683;28;20062;-70
2022/05/17 11:16:12;;;;;;;4.20;1.90;;;;;;;23.66;42.42;97868.22;5002563;28;20031;-71
2022/05/17 11:18:49;;;;;;;4.85;1.63;;;;;;;23.67;43.00;97869.88;4997239;28;20042;-68
2022/05/17 11:21:42;;;;;;;3.25;1.73;;;;;;;23.92;42.07;97874.88;5007694;28;20348;-74
2022/05/17 11:24:26;;;;;;;4.25;1.92;;;;;;;24.18;40.60;97862.94;5027964;28;20092;-72
2022/05/17 11:27:17;;;;;;;4.88;1.98;;;;;;;24.31;40.39;97863.88;5025146;28;20451;-71
2022/05/17 11:30:10;;;;;;;3.08;1.80;;;;;;;24.07;41.19;97868.81;5008944;28;20049;-71
2022/05/17 11:32:42;;;;;;;5.63;2.03;;;;;;;23.97;41.44;97860.84;5025155;28;20072;-77
2022/05/17 11:35:51;;;;;;;5.07;1.67;;;;;;;24.08;39.87;97861.31;5017168;28;20042;-72
2022/05/17 11:38:41;;;;;;;6.03;1.88;;;;;;;23.96;40.05;97850.94;4938392;29;20847;-72
2022/05/17 11:41:43;;;;;;;5.70;1.70;;;;;;;23.99;38.94;97850.28;5026637;28;20061;-71
2022/05/17 11:44:10;;;;;;;4.72;1.45;;;;;;;24.08;39.29;97853.84;5010331;28;20045;-66
2022/05/17 11:46:42;;;;;;;3.85;1.40;;;;;;;24.04;38.25;97853.66;5007993;28;20068;-65
2022/05/17 11:49:12;;;;;;;3.03;1.48;;;;;;;24.23;38.72;97843.41;5002244;28;20042;-65
2022/05/17 11:51:59;;;;;;;4.60;1.70;;;;;;;24.58;37.42;97848.78;5005730;28;20405;-65
2022/05/17 11:54:44;;;;;;;4.22;2.05;;;;;;;24.70;37.58;97850.03;5000033;28;20704;-68
2022/05/17 11:57:32;;;;;;;4.47;1.85;;;;;;;24.74;36.44;97837.97;5005769;28;20038;-65
2022/05/17 12:00:04;;;;;;;2.55;1.25;;;;;;;24.33;36.13;97839.47;5000996;28;20110;-66
2022/05/17 12:02:42;;;;;;;2.75;1.20;;;;;;;24.14;36.32;97841.47;5001966;28;20133;-65
2022/05/17 12:05:37;;;;;;;2.55;1.10;;;;;;;24.58;35.38;97847.97;5010060;28;20115;-64
2022/05/17 12:08:35;;;;;;;5.25;1.40;;;;;;;24.65;35.72;97845.47;4967318;28;20054;-64